createdAt,value
2022-12-18T00:01:22.985Z,86.50
2022-12-18T00:03:52.884Z,86.50
2022-12-18T00:06:20.674Z,86.20
2022-12-18T00:08:47.926Z,86.30
2022-12-18T00:11:25.483Z,86.20
2022-12-18T00:13:54.344Z,86.20
2022-12-18T00:16:23.306Z,86.10
2022-12-18T00:18:52.403Z,86.40
2022-12-18T00:21:20.260Z,86.60
2022-12-18T00:23:48.477Z,86.80
2022-12-18T00:26:18.184Z,86.80
2022-12-18T00:28:45.626Z,87.00
2022-12-18T00:31:15.606Z,87.10
2022-12-18T00:33:42.770Z,87.00
2022-12-18T00:36:21.855Z,87.00
2022-12-18T00:38:49.137Z,86.80
2022-12-18T00:41:37.792Z,86.60
2022-12-18T00:44:09.056Z,86.70
2022-12-18T00:46:35.789Z,87.00
2022-12-18T00:49:03.138Z,87.40
2022-12-18T00:51:29.943Z,87.50
2022-12-18T00:53:56.672Z,87.60
2022-12-18T00:56:24.264Z,87.40
2022-12-18T00:58:51.594Z,87.40
2022-12-18T01:01:21.311Z,87.70
2022-12-18T01:03:48.299Z,87.60
2022-12-18T01:06:17.582Z,87.50
2022-12-18T01:08:44.658Z,87.40
2022-12-18T01:11:18.990Z,87.20
2022-12-18T01:13:45.798Z,86.90
2022-12-18T01:16:14.386Z,86.90
2022-12-18T01:18:43.289Z,86.90
2022-12-18T01:21:12.443Z,87.20
2022-12-18T01:23:39.460Z,87.60
2022-12-18T01:26:12.834Z,87.60
2022-12-18T01:28:40.991Z,87.60
2022-12-18T01:31:28.968Z,87.50
2022-12-18T01:33:57.080Z,87.20
2022-12-18T01:36:27.553Z,87.30
2022-12-18T01:38:57.076Z,87.50
2022-12-18T01:41:49.383Z,87.40
2022-12-18T01:44:54.155Z,87.60
2022-12-18T01:47:41.231Z,87.70
2022-12-18T01:50:19.146Z,87.50
2022-12-18T01:52:53.206Z,87.40
2022-12-18T01:55:23.136Z,87.50
2022-12-18T01:57:53.466Z,87.10
2022-12-18T02:00:22.625Z,86.90
2022-12-18T02:02:52.347Z,86.70
2022-12-18T02:05:57.378Z,86.70
2022-12-18T02:08:43.602Z,87.00
2022-12-18T02:11:20.098Z,87.10
2022-12-18T02:14:02.761Z,87.40
2022-12-18T02:16:49.223Z,87.70
2022-12-18T02:19:48.126Z,87.40
2022-12-18T02:22:33.662Z,87.50
2022-12-18T02:25:35.983Z,87.70
2022-12-18T02:28:06.880Z,88.00
2022-12-18T02:30:37.810Z,88.20
2022-12-18T02:33:07.272Z,87.70
2022-12-18T02:35:35.529Z,87.10
2022-12-18T02:38:04.110Z,86.80
2022-12-18T02:40:34.611Z,86.80
2022-12-18T02:43:12.778Z,87.10
2022-12-18T02:45:56.842Z,87.30
2022-12-18T02:48:28.789Z,87.40
2022-12-18T02:51:07.820Z,87.60
2022-12-18T02:53:41.818Z,87.90
2022-12-18T02:56:20.502Z,87.60
2022-12-18T02:59:10.626Z,87.00
2022-12-18T03:01:53.322Z,86.70
2022-12-18T03:04:31.235Z,86.80
2022-12-18T03:07:01.598Z,86.90
2022-12-18T03:09:36.116Z,87.10
2022-12-18T03:12:23.739Z,87.00
2022-12-18T03:15:05.536Z,86.90
2022-12-18T03:17:34.650Z,86.80
2022-12-18T03:20:11.559Z,86.70
2022-12-18T03:22:40.959Z,87.10
2022-12-18T03:25:11.922Z,87.50
2022-12-18T03:27:44.637Z,87.50
2022-12-18T03:30:14.594Z,87.20
2022-12-18T03:33:14.209Z,86.70
2022-12-18T03:35:45.108Z,87.30
2022-12-18T03:38:13.203Z,87.40
2022-12-18T03:40:46.944Z,87.20
2022-12-18T03:43:21.458Z,87.00
2022-12-18T03:45:55.556Z,86.70
2022-12-18T03:48:32.294Z,86.70
2022-12-18T03:51:12.035Z,86.40
2022-12-18T03:53:52.537Z,86.30
2022-12-18T03:56:24.831Z,86.40
2022-12-18T03:58:54.604Z,86.70
2022-12-18T04:01:39.354Z,86.90
2022-12-18T04:04:07.982Z,86.90
2022-12-18T04:06:39.504Z,86.90
2022-12-18T04:09:08.496Z,86.90
2022-12-18T04:11:40.456Z,86.80
2022-12-18T04:14:07.710Z,86.70
2022-12-18T04:16:35.017Z,86.60
2022-12-18T04:19:04.715Z,86.70
2022-12-18T04:21:37.798Z,86.80
2022-12-18T04:24:04.949Z,86.30
2022-12-18T04:26:32.972Z,85.70
2022-12-18T04:29:13.205Z,85.70
2022-12-18T04:31:40.165Z,86.30
2022-12-18T04:34:07.077Z,86.40
2022-12-18T04:36:39.840Z,86.90
2022-12-18T04:39:07.035Z,86.90
2022-12-18T04:41:34.404Z,87.10
2022-12-18T04:44:01.724Z,86.90
2022-12-18T04:46:28.426Z,86.70
2022-12-18T04:48:55.139Z,86.80
2022-12-18T04:51:26.378Z,86.60
2022-12-18T04:53:53.942Z,86.90
2022-12-18T04:56:20.825Z,87.10
2022-12-18T04:58:47.491Z,87.30
2022-12-18T05:01:15.801Z,87.50
2022-12-18T05:03:43.679Z,87.70
2022-12-18T05:06:10.981Z,88.10
2022-12-18T05:08:37.933Z,88.50
2022-12-18T05:11:09.038Z,88.40
2022-12-18T05:13:36.834Z,88.10
2022-12-18T05:16:04.764Z,87.90
2022-12-18T05:18:31.570Z,87.40
2022-12-18T05:20:59.032Z,87.30
2022-12-18T05:23:26.224Z,87.20
2022-12-18T05:25:55.255Z,87.30
2022-12-18T05:28:23.221Z,87.30
2022-12-18T05:30:51.502Z,87.40
2022-12-18T05:33:19.178Z,87.70
2022-12-18T05:35:54.467Z,87.80
2022-12-18T05:38:22.232Z,87.70
2022-12-18T05:40:49.794Z,87.80
2022-12-18T05:43:21.217Z,87.90
2022-12-18T05:45:48.942Z,88.00
2022-12-18T05:48:16.376Z,87.90
2022-12-18T05:50:46.286Z,87.80
2022-12-18T05:53:14.520Z,87.60
2022-12-18T05:55:42.234Z,87.40
2022-12-18T05:58:09.990Z,87.10
2022-12-18T06:00:40.754Z,87.10
2022-12-18T06:03:09.594Z,87.30
2022-12-18T06:05:38.536Z,87.50
2022-12-18T06:08:05.565Z,87.60
2022-12-18T06:10:32.449Z,87.50
2022-12-18T06:12:59.385Z,87.70
2022-12-18T06:15:26.016Z,87.60
2022-12-18T06:17:52.788Z,87.60
2022-12-18T06:20:20.033Z,87.10
2022-12-18T06:23:00.742Z,86.80
2022-12-18T06:25:27.424Z,87.00
2022-12-18T06:27:54.102Z,86.90
2022-12-18T06:30:21.088Z,86.90
2022-12-18T06:32:54.609Z,87.10
2022-12-18T06:35:23.605Z,87.10
2022-12-18T06:37:50.301Z,87.60
2022-12-18T06:40:17.610Z,87.70
2022-12-18T06:42:44.304Z,87.20
2022-12-18T06:45:12.248Z,87.00
2022-12-18T06:47:38.920Z,86.90
2022-12-18T06:50:06.452Z,86.90
2022-12-18T06:52:33.795Z,87.00
2022-12-18T06:55:01.230Z,87.00
2022-12-18T06:57:27.870Z,87.00
2022-12-18T06:59:54.570Z,86.90
2022-12-18T07:02:21.318Z,87.10
2022-12-18T07:04:48.090Z,87.40
2022-12-18T07:07:16.071Z,87.40
2022-12-18T07:09:42.794Z,87.10
2022-12-18T07:12:10.303Z,86.90
2022-12-18T07:14:36.959Z,87.00
2022-12-18T07:17:03.718Z,87.00
2022-12-18T07:19:30.740Z,87.30
2022-12-18T07:21:57.747Z,87.10
2022-12-18T07:24:24.420Z,87.10
2022-12-18T07:26:51.076Z,87.40
2022-12-18T07:29:17.747Z,87.40
2022-12-18T07:31:44.792Z,87.30
2022-12-18T07:34:13.476Z,87.30
2022-12-18T07:36:40.169Z,87.20
2022-12-18T07:39:07.203Z,87.40
2022-12-18T07:41:34.171Z,87.50
2022-12-18T07:44:11.739Z,87.40
2022-12-18T07:46:39.035Z,87.20
2022-12-18T07:49:05.695Z,86.60
2022-12-18T07:51:32.366Z,86.70
2022-12-18T07:53:59.091Z,87.00
2022-12-18T07:56:28.742Z,87.00
2022-12-18T07:58:56.667Z,87.10
2022-12-18T08:01:23.476Z,87.10
2022-12-18T08:03:50.331Z,86.90
2022-12-18T08:06:19.411Z,86.90
2022-12-18T08:08:49.331Z,87.40
2022-12-18T08:11:16.890Z,87.50
2022-12-18T08:13:43.727Z,87.40
2022-12-18T08:16:10.736Z,87.40
2022-12-18T08:18:38.378Z,87.10
2022-12-18T08:21:19.308Z,87.10
2022-12-18T08:23:48.594Z,86.80
2022-12-18T08:26:16.308Z,86.90
2022-12-18T08:28:43.504Z,86.80
2022-12-18T08:31:10.760Z,86.80
2022-12-18T08:33:39.330Z,86.80
2022-12-18T08:36:07.287Z,86.80
2022-12-18T08:38:34.574Z,86.60
2022-12-18T08:41:03.651Z,86.60
2022-12-18T08:43:49.549Z,86.60
2022-12-18T08:46:16.551Z,86.40
2022-12-18T08:48:43.490Z,86.30
2022-12-18T08:51:10.686Z,86.10
2022-12-18T08:53:37.909Z,86.30
2022-12-18T08:56:05.817Z,86.20
2022-12-18T08:58:32.615Z,86.10
2022-12-18T09:01:07.997Z,85.90
2022-12-18T09:03:34.733Z,86.20
2022-12-18T09:06:01.486Z,86.30
2022-12-18T09:08:28.595Z,86.50
2022-12-18T09:10:56.035Z,86.70
2022-12-18T09:13:23.180Z,86.70
2022-12-18T09:15:53.065Z,86.40
2022-12-18T09:18:22.083Z,86.40
2022-12-18T09:20:49.203Z,86.60
2022-12-18T09:23:15.869Z,86.50
2022-12-18T09:25:42.739Z,86.50
2022-12-18T09:28:15.426Z,86.80
2022-12-18T09:30:48.368Z,86.70
2022-12-18T09:33:15.373Z,86.80
2022-12-18T09:35:44.163Z,86.90
2022-12-18T09:38:17.001Z,86.50
2022-12-18T09:40:53.598Z,86.60
2022-12-18T09:43:28.884Z,86.90
2022-12-18T09:46:01.170Z,86.90
2022-12-18T09:48:35.366Z,87.10
2022-12-18T09:51:11.818Z,86.80
2022-12-18T09:53:41.216Z,86.60
2022-12-18T09:56:20.455Z,86.50
2022-12-18T09:59:15.160Z,86.90
2022-12-18T10:01:44.639Z,87.00
2022-12-18T10:04:12.664Z,86.80
2022-12-18T10:07:09.138Z,86.60
2022-12-18T10:09:46.536Z,86.50
2022-12-18T10:12:24.699Z,86.10
2022-12-18T10:15:20.436Z,85.40
2022-12-18T10:17:59.100Z,79.50
2022-12-18T10:20:35.239Z,72.70
2022-12-18T10:23:45.081Z,68.90
2022-12-18T10:26:14.895Z,66.10
2022-12-18T10:28:43.247Z,63.40
2022-12-18T10:31:24.652Z,62.20
2022-12-18T10:33:54.582Z,60.60
2022-12-18T10:36:23.910Z,59.20
2022-12-18T10:38:50.798Z,58.50
2022-12-18T10:41:22.924Z,58.00
2022-12-18T10:44:09.662Z,57.30
2022-12-18T10:46:36.478Z,56.40
2022-12-18T10:49:03.331Z,55.50
2022-12-18T10:51:34.405Z,55.10
2022-12-18T10:54:23.835Z,54.40
2022-12-18T10:56:50.596Z,54.80
2022-12-18T10:59:19.185Z,54.90
2022-12-18T11:01:53.250Z,55.20
2022-12-18T11:04:23.757Z,57.60
2022-12-18T11:06:59.764Z,60.60
2022-12-18T11:09:29.510Z,64.00
2022-12-18T11:12:00.151Z,66.80
2022-12-18T11:14:34.581Z,69.30
2022-12-18T11:19:57.571Z,71.90
2022-12-18T11:22:33.096Z,72.70
2022-12-18T11:28:25.850Z,75.10
2022-12-18T11:31:20.376Z,75.80
2022-12-18T11:34:30.029Z,76.20
2022-12-18T11:37:00.064Z,76.60
2022-12-18T11:39:39.505Z,77.30
2022-12-18T11:42:18.311Z,78.10
2022-12-18T11:45:00.626Z,78.60
2022-12-18T11:47:43.467Z,79.30
2022-12-18T11:50:24.494Z,79.60
2022-12-18T11:52:56.070Z,79.80
2022-12-18T11:55:56.883Z,79.60
2022-12-18T11:58:34.041Z,79.70
2022-12-18T12:01:15.313Z,79.60
2022-12-18T12:04:01.738Z,79.90
2022-12-18T12:06:34.595Z,79.70
2022-12-18T12:09:23.831Z,79.60
2022-12-18T12:12:18.329Z,79.50
2022-12-18T12:15:01.638Z,79.60
2022-12-18T12:17:50.418Z,79.40
2022-12-18T12:21:03.055Z,79.20
2022-12-18T12:23:48.254Z,79.10
2022-12-18T12:26:35.189Z,79.30
2022-12-18T12:29:24.612Z,79.30
2022-12-18T12:31:56.688Z,78.70
2022-12-18T12:35:00.191Z,79.00
2022-12-18T12:38:13.692Z,78.80
2022-12-18T12:41:02.426Z,78.60
2022-12-18T12:43:43.337Z,78.80
2022-12-18T12:46:18.193Z,79.30
2022-12-18T12:48:53.847Z,79.30
2022-12-18T12:51:25.227Z,79.60
2022-12-18T12:53:54.519Z,80.10
2022-12-18T12:56:23.133Z,80.40
2022-12-18T12:59:07.717Z,80.50
2022-12-18T13:01:54.231Z,80.50
2022-12-18T13:04:35.567Z,81.30
2022-12-18T13:07:25.048Z,81.30
2022-12-18T13:10:19.166Z,81.10
2022-12-18T13:13:01.798Z,81.40
2022-12-18T13:15:35.529Z,81.40
2022-12-18T13:18:17.687Z,81.90
2022-12-18T13:20:59.842Z,81.90
2022-12-18T13:23:35.139Z,81.70
2022-12-18T13:26:08.907Z,81.60
2022-12-18T13:28:47.735Z,81.60
2022-12-18T13:31:42.653Z,81.50
2022-12-18T13:34:26.697Z,81.40
2022-12-18T13:36:55.950Z,81.60
2022-12-18T13:39:34.088Z,81.70
2022-12-18T13:42:07.167Z,82.00
2022-12-18T13:44:42.107Z,82.30
2022-12-18T13:47:38.943Z,82.70
2022-12-18T13:50:27.707Z,82.20
2022-12-18T13:52:59.222Z,82.30
2022-12-18T13:55:26.461Z,83.00
2022-12-18T13:58:04.918Z,83.50
2022-12-18T14:00:32.708Z,83.50
2022-12-18T14:03:00.678Z,83.00
2022-12-18T14:05:37.005Z,82.70
2022-12-18T14:08:16.144Z,82.90
2022-12-18T14:10:49.441Z,83.10
2022-12-18T14:13:25.058Z,83.30
2022-12-18T14:15:52.374Z,83.70
2022-12-18T14:18:48.871Z,84.00
2022-12-18T14:21:22.843Z,84.40
2022-12-18T14:23:50.392Z,83.90
2022-12-18T14:26:30.461Z,83.80
2022-12-18T14:29:02.215Z,84.20
2022-12-18T14:31:31.119Z,84.40
2022-12-18T14:33:57.845Z,84.80
2022-12-18T14:36:27.187Z,84.70
2022-12-18T14:38:58.383Z,84.60
2022-12-18T14:41:26.317Z,84.50
2022-12-18T14:43:55.162Z,84.60
2022-12-18T14:46:37.553Z,84.60
2022-12-18T14:49:25.227Z,84.50
2022-12-18T14:51:57.273Z,84.80
2022-12-18T14:54:28.783Z,84.60
2022-12-18T14:57:05.952Z,84.90
2022-12-18T14:59:33.492Z,85.50
2022-12-18T15:02:16.807Z,85.40
2022-12-18T15:04:44.950Z,85.40
2022-12-18T15:07:11.744Z,85.70
2022-12-18T15:09:40.508Z,85.80
2022-12-18T15:12:25.698Z,85.90
2022-12-18T15:14:52.503Z,86.10
2022-12-18T15:17:23.865Z,86.30
2022-12-18T15:20:09.912Z,86.10
2022-12-18T15:22:38.334Z,86.50
2022-12-18T15:25:30.260Z,86.20
2022-12-18T15:27:57.119Z,86.00
2022-12-18T15:30:26.387Z,86.10
2022-12-18T15:33:13.872Z,86.20
2022-12-18T15:35:46.630Z,86.20
2022-12-18T15:38:13.812Z,86.70
2022-12-18T15:40:40.575Z,86.60
2022-12-18T15:43:28.736Z,87.00
2022-12-18T15:45:55.459Z,87.10
2022-12-18T15:48:23.533Z,87.20
2022-12-18T15:50:53.313Z,87.30
2022-12-18T15:53:20.388Z,87.20
2022-12-18T15:56:05.999Z,87.40
2022-12-18T15:58:33.896Z,87.00
2022-12-18T16:01:02.346Z,87.50
2022-12-18T16:03:29.349Z,87.10
2022-12-18T16:05:56.162Z,87.30
2022-12-18T16:08:24.009Z,87.60
2022-12-18T16:10:50.762Z,87.00
2022-12-18T16:13:20.622Z,87.20
2022-12-18T16:15:47.843Z,87.50
2022-12-18T16:18:15.072Z,87.60
2022-12-18T16:20:41.770Z,88.00
2022-12-18T16:23:08.452Z,87.70
2022-12-18T16:25:35.151Z,87.50
2022-12-18T16:28:02.060Z,87.40
2022-12-18T16:30:35.761Z,87.40
2022-12-18T16:33:05.700Z,88.00
2022-12-18T16:35:34.685Z,87.80
2022-12-18T16:38:01.385Z,87.90
2022-12-18T16:40:28.165Z,87.50
2022-12-18T16:42:54.849Z,87.70
2022-12-18T16:45:21.605Z,87.40
2022-12-18T16:47:48.322Z,87.30
2022-12-18T16:50:15.128Z,87.70
2022-12-18T16:52:41.813Z,87.70
2022-12-18T16:55:09.084Z,88.00
2022-12-18T16:57:35.946Z,88.20
2022-12-18T17:00:05.940Z,88.60
2022-12-18T17:02:33.979Z,88.50
2022-12-18T17:05:00.845Z,88.40
2022-12-18T17:07:28.279Z,88.10
2022-12-18T17:09:55.296Z,88.20
2022-12-18T17:12:22.709Z,88.40
2022-12-18T17:14:49.693Z,88.60
2022-12-18T17:17:22.261Z,88.30
2022-12-18T17:19:50.239Z,88.30
2022-12-18T17:22:17.089Z,88.00
2022-12-18T17:24:43.765Z,88.10
2022-12-18T17:27:10.507Z,88.60
2022-12-18T17:29:40.118Z,88.30
2022-12-18T17:32:12.297Z,88.20
2022-12-18T17:34:40.770Z,88.30
2022-12-18T17:37:07.993Z,88.50
2022-12-18T17:39:34.701Z,88.50
2022-12-18T17:42:01.436Z,88.40
2022-12-18T17:44:28.155Z,88.30
2022-12-18T17:46:55.004Z,88.70
2022-12-18T17:49:21.827Z,88.80
2022-12-18T17:51:48.960Z,88.30
2022-12-18T17:54:15.816Z,88.30
2022-12-18T17:56:42.680Z,88.40
2022-12-18T17:59:09.579Z,88.50
2022-12-18T18:01:42.448Z,88.50
2022-12-18T18:04:11.333Z,88.20
2022-12-18T18:06:39.353Z,88.30
2022-12-18T18:09:16.640Z,88.40
2022-12-18T18:12:03.102Z,88.50
2022-12-18T18:14:30.121Z,88.30
2022-12-18T18:16:57.117Z,88.30
2022-12-18T18:19:28.261Z,88.40
2022-12-18T18:21:55.025Z,88.10
2022-12-18T18:24:23.748Z,88.60
2022-12-18T18:26:50.861Z,88.50
2022-12-18T18:29:23.591Z,88.40
2022-12-18T18:31:52.597Z,87.80
2022-12-18T18:34:22.319Z,87.50
2022-12-18T18:36:49.115Z,87.30
2022-12-18T18:39:16.251Z,87.30
2022-12-18T18:41:45.082Z,87.20
2022-12-18T18:44:15.361Z,87.20
2022-12-18T18:46:42.040Z,87.30
2022-12-18T18:49:09.432Z,87.50
2022-12-18T18:51:36.141Z,87.70
2022-12-18T18:54:03.101Z,87.50
2022-12-18T18:59:17.100Z,87.30
2022-12-18T19:01:44.096Z,87.70
2022-12-18T19:04:10.939Z,87.50
2022-12-18T19:06:37.653Z,87.20
2022-12-18T19:09:06.578Z,87.50
2022-12-18T19:11:53.708Z,87.70
2022-12-18T19:14:20.470Z,88.10
2022-12-18T19:16:47.345Z,88.40
2022-12-18T19:19:14.808Z,88.00
2022-12-18T19:21:41.780Z,87.60
2022-12-18T19:24:10.176Z,87.70
2022-12-18T19:26:37.763Z,87.70
2022-12-18T19:29:09.393Z,87.60
2022-12-18T19:31:37.369Z,87.50
2022-12-18T19:34:06.496Z,87.80
2022-12-18T19:36:35.204Z,87.80
2022-12-18T19:39:02.646Z,87.60
2022-12-18T19:41:31.620Z,87.80
2022-12-18T19:43:59.761Z,87.70
2022-12-18T19:46:26.594Z,87.40
2022-12-18T19:48:53.622Z,87.20
2022-12-18T19:51:25.697Z,87.70
2022-12-18T19:53:58.190Z,87.60
2022-12-18T19:56:28.128Z,87.40
2022-12-18T19:58:55.275Z,87.60
2022-12-18T20:01:24.417Z,87.50
2022-12-18T20:03:52.947Z,87.20
2022-12-18T20:06:24.991Z,87.00
2022-12-18T20:08:51.914Z,87.50
2022-12-18T20:11:20.818Z,87.70
2022-12-18T20:13:47.521Z,87.70
2022-12-18T20:16:14.512Z,87.20
2022-12-18T20:18:41.312Z,87.30
2022-12-18T20:21:13.730Z,87.40
2022-12-18T20:23:41.031Z,87.40
2022-12-18T20:26:08.574Z,87.30
2022-12-18T20:28:35.547Z,87.30
2022-12-18T20:31:04.583Z,87.70
2022-12-18T20:33:32.141Z,87.60
2022-12-18T20:36:06.918Z,87.70
2022-12-18T20:38:35.179Z,87.40
2022-12-18T20:41:06.473Z,87.30
2022-12-18T20:43:33.203Z,87.30
2022-12-18T20:46:08.115Z,87.10
2022-12-18T20:48:34.945Z,87.00
2022-12-18T20:51:08.083Z,86.90
2022-12-18T20:53:35.852Z,87.30
2022-12-18T20:56:21.973Z,87.30
2022-12-18T20:58:50.158Z,87.80
2022-12-18T21:01:19.748Z,88.40
2022-12-18T21:03:47.815Z,88.40
2022-12-18T21:06:17.262Z,87.90
2022-12-18T21:08:44.324Z,87.90
2022-12-18T21:11:38.435Z,87.40
2022-12-18T21:14:10.726Z,87.20
2022-12-18T21:16:37.558Z,87.40
2022-12-18T21:19:04.410Z,87.80
2022-12-18T21:21:35.895Z,87.90
2022-12-18T21:24:06.489Z,87.80
2022-12-18T21:26:33.753Z,87.80
2022-12-18T21:29:04.014Z,87.90
2022-12-18T21:31:33.399Z,87.30
2022-12-18T21:34:02.208Z,86.70
2022-12-18T21:36:29.998Z,86.90
2022-12-18T21:38:57.659Z,87.40
2022-12-18T21:41:44.796Z,87.60
2022-12-18T21:44:14.460Z,87.60
2022-12-18T21:46:44.107Z,87.80
2022-12-18T21:49:14.285Z,87.60
2022-12-18T21:51:41.376Z,87.00
2022-12-18T21:54:08.283Z,87.20
2022-12-18T21:56:51.899Z,87.60
2022-12-18T21:59:19.851Z,87.60
2022-12-18T22:01:47.038Z,87.80
2022-12-18T22:04:14.533Z,87.40
2022-12-18T22:06:42.615Z,87.30
2022-12-18T22:09:11.871Z,87.30
2022-12-18T22:11:38.718Z,87.10
2022-12-18T22:14:05.603Z,87.40
2022-12-18T22:16:32.308Z,87.00
2022-12-18T22:18:59.011Z,87.60
2022-12-18T22:21:31.043Z,87.90
2022-12-18T22:24:03.191Z,87.40
2022-12-18T22:26:38.021Z,87.30
2022-12-18T22:29:25.881Z,87.20
2022-12-18T22:31:52.548Z,87.30
2022-12-18T22:34:22.830Z,87.40
2022-12-18T22:36:50.171Z,87.40
2022-12-18T22:39:29.057Z,87.00
2022-12-18T22:41:56.853Z,87.10
2022-12-18T22:44:25.185Z,87.80
2022-12-18T22:47:05.425Z,87.70
2022-12-18T22:49:35.126Z,87.90
2022-12-18T22:52:03.153Z,87.90
2022-12-18T22:54:30.011Z,87.40
2022-12-18T22:56:57.222Z,87.30
2022-12-18T22:59:24.222Z,87.60
2022-12-18T23:01:54.168Z,87.60
2022-12-18T23:04:35.968Z,87.30
2022-12-18T23:07:05.064Z,87.30
2022-12-18T23:09:32.693Z,87.10
2022-12-18T23:11:59.547Z,87.20
2022-12-18T23:14:26.481Z,87.40
2022-12-18T23:16:53.389Z,87.40
2022-12-18T23:19:20.772Z,87.80
2022-12-18T23:21:47.996Z,87.40
2022-12-18T23:24:15.466Z,87.70
2022-12-18T23:26:43.004Z,88.00
2022-12-18T23:29:09.795Z,87.70
2022-12-18T23:31:38.637Z,87.30
2022-12-18T23:34:06.244Z,87.70
2022-12-18T23:36:37.663Z,87.60
2022-12-18T23:39:26.206Z,87.70
2022-12-18T23:42:00.701Z,87.80
2022-12-18T23:44:28.025Z,87.60
2022-12-18T23:46:55.208Z,88.00
2022-12-18T23:49:22.346Z,87.80
2022-12-18T23:51:49.499Z,87.70
2022-12-18T23:54:16.299Z,87.40
2022-12-18T23:56:43.152Z,87.40
2022-12-18T23:59:10.058Z,87.70
